sensor_id;sensor_type;location;lat;lon;timestamp;P1;durP1;ratioP1;P2;durP2;ratioP2
1925;SDS011;964;42.606;23.588;2023-04-07T00:00:39;15.10;;;8.97;;
1925;SDS011;964;42.606;23.588;2023-04-07T00:03:05;13.27;;;9.73;;
1925;SDS011;964;42.606;23.588;2023-04-07T00:05:34;16.30;;;9.93;;
1925;SDS011;964;42.606;23.588;2023-04-07T00:08:00;13.00;;;9.63;;
1925;SDS011;964;42.606;23.588;2023-04-07T00:10:27;15.07;;;9.37;;
1925;SDS011;964;42.606;23.588;2023-04-07T00:12:54;13.50;;;9.80;;
1925;SDS011;964;42.606;23.588;2023-04-07T00:15:21;19.53;;;10.60;;
1925;SDS011;964;42.606;23.588;2023-04-07T00:17:47;20.90;;;10.20;;
1925;SDS011;964;42.606;23.588;2023-04-07T00:20:14;15.10;;;10.40;;
1925;SDS011;964;42.606;23.588;2023-04-07T00:22:42;20.07;;;11.40;;
1925;SDS011;964;42.606;23.588;2023-04-07T00:25:09;14.70;;;9.60;;
1925;SDS011;964;42.606;23.588;2023-04-07T00:27:35;18.90;;;10.87;;
1925;SDS011;964;42.606;23.588;2023-04-07T00:30:04;18.30;;;11.90;;
1925;SDS011;964;42.606;23.588;2023-04-07T00:32:32;16.97;;;11.10;;
1925;SDS011;964;42.606;23.588;2023-04-07T00:34:59;19.87;;;12.37;;
1925;SDS011;964;42.606;23.588;2023-04-07T00:37:26;15.80;;;10.00;;
1925;SDS011;964;42.606;23.588;2023-04-07T00:39:54;16.07;;;11.00;;
1925;SDS011;964;42.606;23.588;2023-04-07T00:42:21;15.83;;;10.00;;
1925;SDS011;964;42.606;23.588;2023-04-07T00:44:48;15.87;;;9.87;;
1925;SDS011;964;42.606;23.588;2023-04-07T00:47:14;24.40;;;11.23;;
1925;SDS011;964;42.606;23.588;2023-04-07T00:49:41;16.47;;;10.27;;
1925;SDS011;964;42.606;23.588;2023-04-07T00:52:08;23.80;;;12.17;;
1925;SDS011;964;42.606;23.588;2023-04-07T00:54:36;22.47;;;12.33;;
1925;SDS011;964;42.606;23.588;2023-04-07T00:57:04;15.17;;;9.43;;
1925;SDS011;964;42.606;23.588;2023-04-07T00:59:32;15.43;;;9.70;;
1925;SDS011;964;42.606;23.588;2023-04-07T01:02:01;15.63;;;10.10;;
1925;SDS011;964;42.606;23.588;2023-04-07T01:04:31;18.60;;;11.10;;
1925;SDS011;964;42.606;23.588;2023-04-07T01:07:03;18.23;;;9.50;;
1925;SDS011;964;42.606;23.588;2023-04-07T01:09:34;18.20;;;12.50;;
1925;SDS011;964;42.606;23.588;2023-04-07T01:12:06;20.63;;;12.83;;
1925;SDS011;964;42.606;23.588;2023-04-07T01:14:40;20.67;;;12.10;;
1925;SDS011;964;42.606;23.588;2023-04-07T01:17:11;20.80;;;12.40;;
1925;SDS011;964;42.606;23.588;2023-04-07T01:19:42;18.90;;;12.20;;
1925;SDS011;964;42.606;23.588;2023-04-07T01:22:14;19.37;;;11.03;;
1925;SDS011;964;42.606;23.588;2023-04-07T01:24:47;19.47;;;12.10;;
1925;SDS011;964;42.606;23.588;2023-04-07T01:27:35;18.10;;;11.27;;
1925;SDS011;964;42.606;23.588;2023-04-07T01:30:10;26.60;;;15.70;;
1925;SDS011;964;42.606;23.588;2023-04-07T01:32:38;24.23;;;12.90;;
1925;SDS011;964;42.606;23.588;2023-04-07T01:35:08;17.60;;;11.00;;
1925;SDS011;964;42.606;23.588;2023-04-07T01:37:40;17.17;;;11.23;;
1925;SDS011;964;42.606;23.588;2023-04-07T01:40:10;15.40;;;10.23;;
1925;SDS011;964;42.606;23.588;2023-04-07T01:42:38;18.87;;;10.40;;
1925;SDS011;964;42.606;23.588;2023-04-07T01:45:06;18.33;;;10.87;;
1925;SDS011;964;42.606;23.588;2023-04-07T01:47:35;16.73;;;10.53;;
1925;SDS011;964;42.606;23.588;2023-04-07T01:50:04;26.43;;;13.17;;
1925;SDS011;964;42.606;23.588;2023-04-07T01:52:33;20.80;;;12.07;;
1925;SDS011;964;42.606;23.588;2023-04-07T01:55:01;17.03;;;11.30;;
1925;SDS011;964;42.606;23.588;2023-04-07T01:57:28;16.13;;;10.20;;
1925;SDS011;964;42.606;23.588;2023-04-07T01:59:54;19.50;;;11.10;;
1925;SDS011;964;42.606;23.588;2023-04-07T02:02:21;17.33;;;10.27;;
1925;SDS011;964;42.606;23.588;2023-04-07T02:04:50;17.00;;;10.83;;
1925;SDS011;964;42.606;23.588;2023-04-07T02:07:21;13.37;;;8.73;;
1925;SDS011;964;42.606;23.588;2023-04-07T02:09:54;23.17;;;10.17;;
1925;SDS011;964;42.606;23.588;2023-04-07T02:12:23;17.93;;;10.73;;
1925;SDS011;964;42.606;23.588;2023-04-07T02:14:52;11.53;;;7.73;;
1925;SDS011;964;42.606;23.588;2023-04-07T02:17:20;16.47;;;9.00;;
1925;SDS011;964;42.606;23.588;2023-04-07T02:19:50;10.00;;;7.20;;
1925;SDS011;964;42.606;23.588;2023-04-07T02:22:18;16.37;;;9.37;;
1925;SDS011;964;42.606;23.588;2023-04-07T02:24:45;16.88;;;10.05;;
1925;SDS011;964;42.606;23.588;2023-04-07T02:27:12;17.23;;;9.70;;
1925;SDS011;964;42.606;23.588;2023-04-07T02:29:39;19.03;;;10.77;;
1925;SDS011;964;42.606;23.588;2023-04-07T02:32:06;19.63;;;9.70;;
1925;SDS011;964;42.606;23.588;2023-04-07T02:34:32;21.07;;;10.80;;
1925;SDS011;964;42.606;23.588;2023-04-07T02:37:00;25.53;;;12.30;;
1925;SDS011;964;42.606;23.588;2023-04-07T02:39:27;23.40;;;14.00;;
1925;SDS011;964;42.606;23.588;2023-04-07T02:41:54;23.53;;;10.97;;
1925;SDS011;964;42.606;23.588;2023-04-07T02:44:20;27.43;;;13.37;;
1925;SDS011;964;42.606;23.588;2023-04-07T02:46:47;25.23;;;14.20;;
1925;SDS011;964;42.606;23.588;2023-04-07T02:49:14;24.33;;;12.67;;
1925;SDS011;964;42.606;23.588;2023-04-07T02:51:41;23.13;;;12.27;;
1925;SDS011;964;42.606;23.588;2023-04-07T02:54:09;24.23;;;14.90;;
1925;SDS011;964;42.606;23.588;2023-04-07T02:56:35;32.50;;;15.70;;
1925;SDS011;964;42.606;23.588;2023-04-07T02:59:02;87.70;;;29.67;;
1925;SDS011;964;42.606;23.588;2023-04-07T03:01:29;54.80;;;25.33;;
1925;SDS011;964;42.606;23.588;2023-04-07T03:03:55;27.33;;;14.40;;
1925;SDS011;964;42.606;23.588;2023-04-07T03:06:22;24.57;;;14.60;;
1925;SDS011;964;42.606;23.588;2023-04-07T03:08:48;21.23;;;13.90;;
1925;SDS011;964;42.606;23.588;2023-04-07T03:11:16;23.50;;;13.30;;
1925;SDS011;964;42.606;23.588;2023-04-07T03:13:43;14.10;;;10.33;;
1925;SDS011;964;42.606;23.588;2023-04-07T03:16:10;13.30;;;9.37;;
1925;SDS011;964;42.606;23.588;2023-04-07T03:18:36;21.00;;;12.10;;
1925;SDS011;964;42.606;23.588;2023-04-07T03:21:03;38.07;;;17.40;;
1925;SDS011;964;42.606;23.588;2023-04-07T03:23:30;19.37;;;11.30;;
1925;SDS011;964;42.606;23.588;2023-04-07T03:25:56;23.97;;;13.80;;
1925;SDS011;964;42.606;23.588;2023-04-07T03:28:24;22.50;;;13.30;;
1925;SDS011;964;42.606;23.588;2023-04-07T03:30:51;19.33;;;11.07;;
1925;SDS011;964;42.606;23.588;2023-04-07T03:33:18;18.20;;;10.57;;
1925;SDS011;964;42.606;23.588;2023-04-07T03:35:45;23.00;;;11.90;;
1925;SDS011;964;42.606;23.588;2023-04-07T03:38:11;18.03;;;10.20;;
1925;SDS011;964;42.606;23.588;2023-04-07T03:40:38;18.17;;;11.30;;
1925;SDS011;964;42.606;23.588;2023-04-07T03:43:05;18.53;;;10.47;;
1925;SDS011;964;42.606;23.588;2023-04-07T03:45:37;15.20;;;11.00;;
1925;SDS011;964;42.606;23.588;2023-04-07T03:48:04;22.83;;;14.00;;
1925;SDS011;964;42.606;23.588;2023-04-07T03:50:34;22.00;;;14.20;;
1925;SDS011;964;42.606;23.588;2023-04-07T03:53:01;22.63;;;11.97;;
1925;SDS011;964;42.606;23.588;2023-04-07T03:55:27;20.57;;;11.73;;
1925;SDS011;964;42.606;23.588;2023-04-07T03:57:54;16.53;;;7.67;;
1925;SDS011;964;42.606;23.588;2023-04-07T04:00:21;13.50;;;10.70;;
1925;SDS011;964;42.606;23.588;2023-04-07T04:02:49;14.80;;;10.30;;
1925;SDS011;964;42.606;23.588;2023-04-07T04:05:16;13.30;;;9.67;;
1925;SDS011;964;42.606;23.588;2023-04-07T04:07:42;18.63;;;12.27;;
1925;SDS011;964;42.606;23.588;2023-04-07T04:10:09;19.50;;;12.50;;
1925;SDS011;964;42.606;23.588;2023-04-07T04:12:36;15.13;;;9.43;;
1925;SDS011;964;42.606;23.588;2023-04-07T04:15:03;15.50;;;9.20;;
1925;SDS011;964;42.606;23.588;2023-04-07T04:17:30;22.77;;;13.80;;
1925;SDS011;964;42.606;23.588;2023-04-07T04:19:58;28.17;;;15.37;;
1925;SDS011;964;42.606;23.588;2023-04-07T04:22:33;26.07;;;13.50;;
1925;SDS011;964;42.606;23.588;2023-04-07T04:25:15;21.67;;;12.90;;
1925;SDS011;964;42.606;23.588;2023-04-07T04:27:41;29.33;;;13.87;;
1925;SDS011;964;42.606;23.588;2023-04-07T04:30:08;26.77;;;14.87;;
1925;SDS011;964;42.606;23.588;2023-04-07T04:32:35;31.77;;;16.10;;
1925;SDS011;964;42.606;23.588;2023-04-07T04:35:04;29.17;;;16.87;;
1925;SDS011;964;42.606;23.588;2023-04-07T04:37:31;33.73;;;18.17;;
1925;SDS011;964;42.606;23.588;2023-04-07T04:39:58;35.57;;;18.67;;
1925;SDS011;964;42.606;23.588;2023-04-07T04:42:25;37.60;;;21.33;;
1925;SDS011;964;42.606;23.588;2023-04-07T04:44:52;52.13;;;22.03;;
1925;SDS011;964;42.606;23.588;2023-04-07T04:47:19;61.27;;;21.30;;
1925;SDS011;964;42.606;23.588;2023-04-07T04:49:46;60.90;;;25.13;;
1925;SDS011;964;42.606;23.588;2023-04-07T04:52:14;44.43;;;23.90;;
1925;SDS011;964;42.606;23.588;2023-04-07T04:54:40;45.07;;;23.17;;
1925;SDS011;964;42.606;23.588;2023-04-07T04:57:07;39.63;;;22.80;;
1925;SDS011;964;42.606;23.588;2023-04-07T04:59:34;75.80;;;33.40;;
1925;SDS011;964;42.606;23.588;2023-04-07T05:02:00;62.80;;;33.30;;
1925;SDS011;964;42.606;23.588;2023-04-07T05:04:27;63.97;;;32.63;;
1925;SDS011;964;42.606;23.588;2023-04-07T05:06:54;65.97;;;31.53;;
1925;SDS011;964;42.606;23.588;2023-04-07T05:09:22;34.63;;;19.00;;
1925;SDS011;964;42.606;23.588;2023-04-07T05:11:49;28.33;;;17.97;;
1925;SDS011;964;42.606;23.588;2023-04-07T05:14:15;30.60;;;17.57;;
1925;SDS011;964;42.606;23.588;2023-04-07T05:16:42;26.80;;;17.27;;
1925;SDS011;964;42.606;23.588;2023-04-07T05:19:08;28.83;;;16.00;;
1925;SDS011;964;42.606;23.588;2023-04-07T05:21:35;27.43;;;15.57;;
1925;SDS011;964;42.606;23.588;2023-04-07T05:24:02;35.43;;;18.73;;
1925;SDS011;964;42.606;23.588;2023-04-07T05:26:30;26.97;;;16.23;;
1925;SDS011;964;42.606;23.588;2023-04-07T05:28:57;28.43;;;17.10;;
1925;SDS011;964;42.606;23.588;2023-04-07T05:31:24;28.57;;;18.20;;
1925;SDS011;964;42.606;23.588;2023-04-07T05:33:50;25.77;;;15.57;;
1925;SDS011;964;42.606;23.588;2023-04-07T05:36:17;25.83;;;13.40;;
1925;SDS011;964;42.606;23.588;2023-04-07T05:38:44;17.07;;;12.37;;
1925;SDS011;964;42.606;23.588;2023-04-07T05:41:11;24.37;;;14.77;;
1925;SDS011;964;42.606;23.588;2023-04-07T05:43:39;21.70;;;12.97;;
1925;SDS011;964;42.606;23.588;2023-04-07T05:46:06;20.93;;;13.60;;
1925;SDS011;964;42.606;23.588;2023-04-07T05:48:32;20.63;;;14.23;;
1925;SDS011;964;42.606;23.588;2023-04-07T05:50:59;19.30;;;12.03;;
1925;SDS011;964;42.606;23.588;2023-04-07T05:53:26;23.10;;;12.90;;
1925;SDS011;964;42.606;23.588;2023-04-07T05:55:52;18.30;;;12.80;;
1925;SDS011;964;42.606;23.588;2023-04-07T05:58:19;17.70;;;10.87;;
1925;SDS011;964;42.606;23.588;2023-04-07T06:00:47;14.63;;;10.07;;
1925;SDS011;964;42.606;23.588;2023-04-07T06:03:14;14.17;;;10.43;;
1925;SDS011;964;42.606;23.588;2023-04-07T06:05:41;21.57;;;13.70;;
1925;SDS011;964;42.606;23.588;2023-04-07T06:08:07;65.90;;;23.37;;
1925;SDS011;964;42.606;23.588;2023-04-07T06:10:34;52.70;;;23.07;;
1925;SDS011;964;42.606;23.588;2023-04-07T06:13:01;37.57;;;17.40;;
1925;SDS011;964;42.606;23.588;2023-04-07T06:15:28;22.47;;;12.40;;
1925;SDS011;964;42.606;23.588;2023-04-07T06:17:56;20.80;;;12.83;;
1925;SDS011;964;42.606;23.588;2023-04-07T06:20:22;15.00;;;9.90;;
1925;SDS011;964;42.606;23.588;2023-04-07T06:22:51;12.60;;;9.57;;
1925;SDS011;964;42.606;23.588;2023-04-07T06:25:18;13.70;;;9.23;;
1925;SDS011;964;42.606;23.588;2023-04-07T06:27:45;16.43;;;9.80;;
1925;SDS011;964;42.606;23.588;2023-04-07T06:30:12;15.20;;;10.60;;
1925;SDS011;964;42.606;23.588;2023-04-07T06:32:39;11.90;;;9.63;;
1925;SDS011;964;42.606;23.588;2023-04-07T06:35:08;14.20;;;10.60;;
1925;SDS011;964;42.606;23.588;2023-04-07T06:37:34;14.00;;;10.37;;
1925;SDS011;964;42.606;23.588;2023-04-07T06:40:01;13.83;;;9.97;;
1925;SDS011;964;42.606;23.588;2023-04-07T06:42:28;11.33;;;9.10;;
1925;SDS011;964;42.606;23.588;2023-04-07T06:44:54;17.03;;;10.77;;
1925;SDS011;964;42.606;23.588;2023-04-07T06:47:21;17.10;;;10.40;;
1925;SDS011;964;42.606;23.588;2023-04-07T06:49:48;14.20;;;9.70;;
1925;SDS011;964;42.606;23.588;2023-04-07T06:52:16;15.87;;;11.40;;
1925;SDS011;964;42.606;23.588;2023-04-07T06:54:43;16.47;;;11.60;;
1925;SDS011;964;42.606;23.588;2023-04-07T06:57:10;12.87;;;9.93;;
1925;SDS011;964;42.606;23.588;2023-04-07T06:59:36;16.87;;;11.00;;
1925;SDS011;964;42.606;23.588;2023-04-07T07:02:03;15.93;;;10.97;;
1925;SDS011;964;42.606;23.588;2023-04-07T07:04:31;12.60;;;10.20;;
1925;SDS011;964;42.606;23.588;2023-04-07T07:06:58;14.13;;;11.43;;
1925;SDS011;964;42.606;23.588;2023-04-07T07:09:26;15.00;;;11.10;;
1925;SDS011;964;42.606;23.588;2023-04-07T07:11:52;14.67;;;10.23;;
1925;SDS011;964;42.606;23.588;2023-04-07T07:14:19;11.63;;;10.37;;
1925;SDS011;964;42.606;23.588;2023-04-07T07:16:46;11.87;;;10.10;;
1925;SDS011;964;42.606;23.588;2023-04-07T07:19:13;12.73;;;11.07;;
1925;SDS011;964;42.606;23.588;2023-04-07T07:21:40;13.13;;;9.97;;
1925;SDS011;964;42.606;23.588;2023-04-07T07:24:07;15.33;;;8.80;;
1925;SDS011;964;42.606;23.588;2023-04-07T07:26:35;12.70;;;9.37;;
1925;SDS011;964;42.606;23.588;2023-04-07T07:29:01;13.47;;;9.93;;
1925;SDS011;964;42.606;23.588;2023-04-07T07:31:28;17.07;;;9.70;;
1925;SDS011;964;42.606;23.588;2023-04-07T07:33:55;10.27;;;8.07;;
1925;SDS011;964;42.606;23.588;2023-04-07T07:36:22;12.27;;;9.30;;
1925;SDS011;964;42.606;23.588;2023-04-07T07:38:49;10.97;;;8.27;;
1925;SDS011;964;42.606;23.588;2023-04-07T07:41:16;12.47;;;9.53;;
1925;SDS011;964;42.606;23.588;2023-04-07T07:43:44;16.60;;;10.20;;
1925;SDS011;964;42.606;23.588;2023-04-07T07:46:11;12.43;;;8.80;;
1925;SDS011;964;42.606;23.588;2023-04-07T07:48:38;13.37;;;9.03;;
1925;SDS011;964;42.606;23.588;2023-04-07T07:51:04;12.80;;;9.23;;
1925;SDS011;964;42.606;23.588;2023-04-07T07:53:31;17.97;;;10.57;;
1925;SDS011;964;42.606;23.588;2023-04-07T07:55:58;12.80;;;8.93;;
1925;SDS011;964;42.606;23.588;2023-04-07T07:58:25;10.57;;;8.50;;
1925;SDS011;964;42.606;23.588;2023-04-07T08:00:53;14.00;;;9.83;;
1925;SDS011;964;42.606;23.588;2023-04-07T08:03:19;10.70;;;8.77;;
1925;SDS011;964;42.606;23.588;2023-04-07T08:05:47;14.33;;;8.63;;
1925;SDS011;964;42.606;23.588;2023-04-07T08:08:14;10.97;;;8.23;;
1925;SDS011;964;42.606;23.588;2023-04-07T08:10:41;9.63;;;8.30;;
1925;SDS011;964;42.606;23.588;2023-04-07T08:13:08;8.23;;;6.93;;
1925;SDS011;964;42.606;23.588;2023-04-07T08:15:50;12.52;;;9.63;;
1925;SDS011;964;42.606;23.588;2023-04-07T08:25:38;10.50;;;8.60;;
1925;SDS011;964;42.606;23.588;2023-04-07T08:28:05;9.90;;;7.77;;
1925;SDS011;964;42.606;23.588;2023-04-07T08:30:31;12.97;;;9.27;;
1925;SDS011;964;42.606;23.588;2023-04-07T08:32:58;11.90;;;9.13;;
1925;SDS011;964;42.606;23.588;2023-04-07T08:35:25;10.97;;;8.30;;
1925;SDS011;964;42.606;23.588;2023-04-07T08:37:51;14.93;;;9.17;;
1925;SDS011;964;42.606;23.588;2023-04-07T08:40:18;9.47;;;8.40;;
1925;SDS011;964;42.606;23.588;2023-04-07T08:42:47;9.70;;;8.13;;
1925;SDS011;964;42.606;23.588;2023-04-07T08:45:15;11.93;;;8.80;;
1925;SDS011;964;42.606;23.588;2023-04-07T08:47:42;9.97;;;8.20;;
1925;SDS011;964;42.606;23.588;2023-04-07T08:50:11;10.93;;;7.73;;
1925;SDS011;964;42.606;23.588;2023-04-07T08:52:40;12.40;;;8.43;;
1925;SDS011;964;42.606;23.588;2023-04-07T08:55:10;11.87;;;8.43;;
1925;SDS011;964;42.606;23.588;2023-04-07T08:57:37;10.70;;;9.00;;
1925;SDS011;964;42.606;23.588;2023-04-07T09:00:07;10.27;;;9.13;;
1925;SDS011;964;42.606;23.588;2023-04-07T09:02:43;16.03;;;10.43;;
1925;SDS011;964;42.606;23.588;2023-04-07T09:05:12;11.50;;;8.87;;
1925;SDS011;964;42.606;23.588;2023-04-07T09:07:39;15.57;;;9.27;;
1925;SDS011;964;42.606;23.588;2023-04-07T09:10:07;11.53;;;8.97;;
1925;SDS011;964;42.606;23.588;2023-04-07T09:12:34;11.47;;;8.53;;
1925;SDS011;964;42.606;23.588;2023-04-07T09:15:02;15.77;;;9.40;;
1925;SDS011;964;42.606;23.588;2023-04-07T09:17:33;10.93;;;9.07;;
1925;SDS011;964;42.606;23.588;2023-04-07T09:20:00;11.17;;;7.10;;
1925;SDS011;964;42.606;23.588;2023-04-07T09:22:34;10.70;;;8.00;;
1925;SDS011;964;42.606;23.588;2023-04-07T09:25:08;9.70;;;7.60;;
1925;SDS011;964;42.606;23.588;2023-04-07T09:27:39;9.80;;;7.67;;
1925;SDS011;964;42.606;23.588;2023-04-07T09:30:10;9.37;;;8.00;;
1925;SDS011;964;42.606;23.588;2023-04-07T09:32:40;9.20;;;7.03;;
1925;SDS011;964;42.606;23.588;2023-04-07T09:35:07;8.57;;;6.77;;
1925;SDS011;964;42.606;23.588;2023-04-07T09:37:34;9.88;;;8.75;;
1925;SDS011;964;42.606;23.588;2023-04-07T09:40:01;8.30;;;6.70;;
1925;SDS011;964;42.606;23.588;2023-04-07T09:42:29;10.10;;;7.23;;
1925;SDS011;964;42.606;23.588;2023-04-07T09:44:56;8.20;;;7.10;;
1925;SDS011;964;42.606;23.588;2023-04-07T09:47:26;7.33;;;6.60;;
1925;SDS011;964;42.606;23.588;2023-04-07T09:49:55;10.80;;;8.20;;
1925;SDS011;964;42.606;23.588;2023-04-07T09:52:25;10.63;;;8.23;;
1925;SDS011;964;42.606;23.588;2023-04-07T09:55:13;8.53;;;7.27;;
1925;SDS011;964;42.606;23.588;2023-04-07T09:57:41;8.07;;;7.17;;
1925;SDS011;964;42.606;23.588;2023-04-07T10:00:09;25.33;;;14.53;;
1925;SDS011;964;42.606;23.588;2023-04-07T10:02:37;23.60;;;12.13;;
1925;SDS011;964;42.606;23.588;2023-04-07T10:05:05;10.90;;;7.43;;
1925;SDS011;964;42.606;23.588;2023-04-07T10:07:33;12.03;;;9.80;;
1925;SDS011;964;42.606;23.588;2023-04-07T10:10:01;12.33;;;10.60;;
1925;SDS011;964;42.606;23.588;2023-04-07T10:12:30;9.27;;;7.60;;
1925;SDS011;964;42.606;23.588;2023-04-07T10:14:58;9.83;;;7.50;;
1925;SDS011;964;42.606;23.588;2023-04-07T10:17:26;8.63;;;7.00;;
1925;SDS011;964;42.606;23.588;2023-04-07T10:19:53;10.07;;;6.70;;
1925;SDS011;964;42.606;23.588;2023-04-07T10:22:23;11.17;;;7.00;;
1925;SDS011;964;42.606;23.588;2023-04-07T10:24:51;9.50;;;7.10;;
1925;SDS011;964;42.606;23.588;2023-04-07T10:27:21;9.30;;;6.90;;
1925;SDS011;964;42.606;23.588;2023-04-07T10:29:55;9.57;;;6.07;;
1925;SDS011;964;42.606;23.588;2023-04-07T10:32:23;10.00;;;6.43;;
1925;SDS011;964;42.606;23.588;2023-04-07T10:34:56;9.60;;;7.23;;
1925;SDS011;964;42.606;23.588;2023-04-07T10:37:25;9.40;;;7.77;;
1925;SDS011;964;42.606;23.588;2023-04-07T10:42:52;12.10;;;7.23;;
1925;SDS011;964;42.606;23.588;2023-04-07T10:45:50;8.47;;;7.53;;
1925;SDS011;964;42.606;23.588;2023-04-07T10:48:20;7.60;;;6.60;;
1925;SDS011;964;42.606;23.588;2023-04-07T10:57:08;9.50;;;7.10;;
1925;SDS011;964;42.606;23.588;2023-04-07T10:59:37;10.23;;;7.90;;
1925;SDS011;964;42.606;23.588;2023-04-07T11:04:58;9.53;;;7.17;;
1925;SDS011;964;42.606;23.588;2023-04-07T11:07:43;10.93;;;8.67;;
1925;SDS011;964;42.606;23.588;2023-04-07T11:10:15;7.77;;;6.97;;
1925;SDS011;964;42.606;23.588;2023-04-07T11:12:43;11.10;;;6.57;;
1925;SDS011;964;42.606;23.588;2023-04-07T11:15:23;10.57;;;7.00;;
1925;SDS011;964;42.606;23.588;2023-04-07T11:20:52;8.83;;;7.40;;
1925;SDS011;964;42.606;23.588;2023-04-07T11:23:22;11.03;;;8.00;;
1925;SDS011;964;42.606;23.588;2023-04-07T11:25:50;9.73;;;7.17;;
1925;SDS011;964;42.606;23.588;2023-04-07T11:28:18;10.50;;;7.60;;
1925;SDS011;964;42.606;23.588;2023-04-07T11:30:46;8.80;;;7.83;;
1925;SDS011;964;42.606;23.588;2023-04-07T11:33:19;11.03;;;7.37;;
1925;SDS011;964;42.606;23.588;2023-04-07T11:35:48;12.13;;;8.30;;
1925;SDS011;964;42.606;23.588;2023-04-07T11:38:16;9.03;;;7.83;;
1925;SDS011;964;42.606;23.588;2023-04-07T11:40:43;9.50;;;7.83;;
1925;SDS011;964;42.606;23.588;2023-04-07T11:43:16;11.67;;;7.47;;
1925;SDS011;964;42.606;23.588;2023-04-07T11:45:44;9.20;;;6.70;;
1925;SDS011;964;42.606;23.588;2023-04-07T11:48:27;9.10;;;7.23;;
1925;SDS011;964;42.606;23.588;2023-04-07T11:50:56;8.47;;;7.33;;
1925;SDS011;964;42.606;23.588;2023-04-07T11:53:27;9.47;;;7.30;;
1925;SDS011;964;42.606;23.588;2023-04-07T11:56:01;10.57;;;7.50;;
1925;SDS011;964;42.606;23.588;2023-04-07T11:58:29;10.23;;;7.50;;
1925;SDS011;964;42.606;23.588;2023-04-07T12:00:57;11.57;;;6.87;;
1925;SDS011;964;42.606;23.588;2023-04-07T12:03:28;7.80;;;6.70;;
1925;SDS011;964;42.606;23.588;2023-04-07T12:05:57;7.83;;;6.80;;
1925;SDS011;964;42.606;23.588;2023-04-07T12:08:35;8.83;;;7.00;;
1925;SDS011;964;42.606;23.588;2023-04-07T12:11:03;10.50;;;7.13;;
1925;SDS011;964;42.606;23.588;2023-04-07T12:13:30;8.90;;;7.10;;
1925;SDS011;964;42.606;23.588;2023-04-07T12:15:57;9.90;;;7.70;;
1925;SDS011;964;42.606;23.588;2023-04-07T12:18:24;9.10;;;7.73;;
1925;SDS011;964;42.606;23.588;2023-04-07T12:20:52;8.00;;;7.20;;
1925;SDS011;964;42.606;23.588;2023-04-07T12:23:20;8.80;;;7.90;;
1925;SDS011;964;42.606;23.588;2023-04-07T12:25:47;10.70;;;7.00;;
1925;SDS011;964;42.606;23.588;2023-04-07T12:28:14;8.40;;;7.43;;
1925;SDS011;964;42.606;23.588;2023-04-07T12:30:41;9.13;;;8.20;;
1925;SDS011;964;42.606;23.588;2023-04-07T12:33:07;8.90;;;6.90;;
1925;SDS011;964;42.606;23.588;2023-04-07T12:35:46;8.30;;;7.50;;
1925;SDS011;964;42.606;23.588;2023-04-07T12:38:16;8.13;;;7.33;;
1925;SDS011;964;42.606;23.588;2023-04-07T12:43:28;10.47;;;7.70;;
1925;SDS011;964;42.606;23.588;2023-04-07T12:45:55;9.07;;;8.13;;
1925;SDS011;964;42.606;23.588;2023-04-07T12:48:22;8.37;;;7.47;;
1925;SDS011;964;42.606;23.588;2023-04-07T12:50:50;9.50;;;7.83;;
1925;SDS011;964;42.606;23.588;2023-04-07T12:53:17;9.60;;;8.43;;
1925;SDS011;964;42.606;23.588;2023-04-07T12:55:44;8.93;;;7.90;;
1925;SDS011;964;42.606;23.588;2023-04-07T12:58:13;13.30;;;8.27;;
1925;SDS011;964;42.606;23.588;2023-04-07T13:00:41;9.20;;;7.63;;
1925;SDS011;964;42.606;23.588;2023-04-07T13:03:08;9.43;;;7.73;;
1925;SDS011;964;42.606;23.588;2023-04-07T13:05:35;9.13;;;8.20;;
1925;SDS011;964;42.606;23.588;2023-04-07T13:08:02;9.37;;;8.00;;
1925;SDS011;964;42.606;23.588;2023-04-07T13:10:28;8.80;;;7.53;;
1925;SDS011;964;42.606;23.588;2023-04-07T13:12:55;11.40;;;8.50;;
1925;SDS011;964;42.606;23.588;2023-04-07T13:15:23;8.93;;;8.03;;
1925;SDS011;964;42.606;23.588;2023-04-07T13:17:50;8.30;;;7.50;;
1925;SDS011;964;42.606;23.588;2023-04-07T13:20:17;11.60;;;8.80;;
1925;SDS011;964;42.606;23.588;2023-04-07T13:22:43;9.10;;;7.83;;
1925;SDS011;964;42.606;23.588;2023-04-07T13:25:11;9.17;;;7.57;;
1925;SDS011;964;42.606;23.588;2023-04-07T13:27:38;9.50;;;8.47;;
1925;SDS011;964;42.606;23.588;2023-04-07T13:30:05;9.00;;;8.10;;
1925;SDS011;964;42.606;23.588;2023-04-07T13:32:34;10.80;;;8.10;;
1925;SDS011;964;42.606;23.588;2023-04-07T13:35:01;8.17;;;7.23;;
1925;SDS011;964;42.606;23.588;2023-04-07T13:37:27;7.97;;;6.83;;
1925;SDS011;964;42.606;23.588;2023-04-07T13:39:54;9.93;;;7.53;;
1925;SDS011;964;42.606;23.588;2023-04-07T13:42:21;9.40;;;7.97;;
1925;SDS011;964;42.606;23.588;2023-04-07T13:44:47;9.90;;;7.63;;
1925;SDS011;964;42.606;23.588;2023-04-07T13:47:15;9.80;;;8.10;;
1925;SDS011;964;42.606;23.588;2023-04-07T13:49:46;8.20;;;7.40;;
1925;SDS011;964;42.606;23.588;2023-04-07T13:52:13;11.30;;;8.20;;
1925;SDS011;964;42.606;23.588;2023-04-07T13:54:39;8.60;;;7.70;;
1925;SDS011;964;42.606;23.588;2023-04-07T13:57:07;16.03;;;8.00;;
1925;SDS011;964;42.606;23.588;2023-04-07T13:59:33;11.00;;;8.20;;
1925;SDS011;964;42.606;23.588;2023-04-07T14:02:00;9.10;;;8.20;;
1925;SDS011;964;42.606;23.588;2023-04-07T14:04:27;8.13;;;6.93;;
1925;SDS011;964;42.606;23.588;2023-04-07T14:06:55;9.40;;;7.90;;
1925;SDS011;964;42.606;23.588;2023-04-07T14:09:22;12.70;;;8.47;;
1925;SDS011;964;42.606;23.588;2023-04-07T14:11:48;11.33;;;7.87;;
1925;SDS011;964;42.606;23.588;2023-04-07T14:14:15;7.77;;;6.97;;
1925;SDS011;964;42.606;23.588;2023-04-07T14:16:42;7.47;;;6.77;;
1925;SDS011;964;42.606;23.588;2023-04-07T14:19:08;8.60;;;7.20;;
1925;SDS011;964;42.606;23.588;2023-04-07T14:21:35;8.80;;;7.20;;
1925;SDS011;964;42.606;23.588;2023-04-07T14:24:03;8.87;;;6.83;;
1925;SDS011;964;42.606;23.588;2023-04-07T14:26:30;8.70;;;7.80;;
1925;SDS011;964;42.606;23.588;2023-04-07T14:28:57;10.43;;;7.93;;
1925;SDS011;964;42.606;23.588;2023-04-07T14:31:23;11.97;;;7.80;;
1925;SDS011;964;42.606;23.588;2023-04-07T14:33:50;9.20;;;7.87;;
1925;SDS011;964;42.606;23.588;2023-04-07T14:36:16;15.80;;;7.77;;
1925;SDS011;964;42.606;23.588;2023-04-07T14:38:43;7.97;;;7.17;;
1925;SDS011;964;42.606;23.588;2023-04-07T14:41:11;9.07;;;7.80;;
1925;SDS011;964;42.606;23.588;2023-04-07T14:43:38;10.23;;;6.50;;
1925;SDS011;964;42.606;23.588;2023-04-07T14:46:05;10.20;;;8.40;;
1925;SDS011;964;42.606;23.588;2023-04-07T14:48:32;15.60;;;7.87;;
1925;SDS011;964;42.606;23.588;2023-04-07T14:50:59;9.73;;;8.27;;
1925;SDS011;964;42.606;23.588;2023-04-07T14:53:26;9.87;;;7.83;;
1925;SDS011;964;42.606;23.588;2023-04-07T14:55:52;8.93;;;7.63;;
1925;SDS011;964;42.606;23.588;2023-04-07T14:58:20;9.87;;;7.93;;
1925;SDS011;964;42.606;23.588;2023-04-07T15:00:47;9.80;;;7.50;;
1925;SDS011;964;42.606;23.588;2023-04-07T15:03:14;11.27;;;8.23;;
1925;SDS011;964;42.606;23.588;2023-04-07T15:05:40;13.83;;;8.63;;
1925;SDS011;964;42.606;23.588;2023-04-07T15:08:07;8.83;;;7.73;;
1925;SDS011;964;42.606;23.588;2023-04-07T15:10:36;10.13;;;7.13;;
1925;SDS011;964;42.606;23.588;2023-04-07T15:13:03;11.67;;;7.37;;
1925;SDS011;964;42.606;23.588;2023-04-07T15:15:31;10.50;;;8.37;;
1925;SDS011;964;42.606;23.588;2023-04-07T15:17:58;10.50;;;8.27;;
1925;SDS011;964;42.606;23.588;2023-04-07T15:20:24;12.40;;;8.77;;
1925;SDS011;964;42.606;23.588;2023-04-07T15:22:51;11.93;;;8.57;;
1925;SDS011;964;42.606;23.588;2023-04-07T15:25:18;11.87;;;9.07;;
1925;SDS011;964;42.606;23.588;2023-04-07T15:27:47;11.25;;;8.65;;
1925;SDS011;964;42.606;23.588;2023-04-07T15:30:13;8.87;;;7.23;;